createdAt,value
2017-12-29T00:02:24.240Z,63.05
2017-12-29T00:04:53.158Z,64.98
2017-12-29T00:07:20.890Z,66.13
2017-12-29T00:09:51.703Z,65.04
2017-12-29T00:12:20.048Z,64.03
2017-12-29T00:17:21.473Z,64.28
2017-12-29T00:20:10.809Z,64.32
2017-12-29T00:26:35.588Z,64.55
2017-12-29T00:29:06.311Z,65.49
2017-12-29T00:31:34.517Z,65.50
2017-12-29T00:34:03.255Z,65.61
2017-12-29T00:36:30.836Z,65.15
2017-12-29T00:39:24.020Z,64.48
2017-12-29T00:41:54.828Z,64.70
2017-12-29T00:48:50.306Z,64.31
2017-12-29T00:51:31.233Z,64.73
2017-12-29T00:54:08.221Z,63.65
2017-12-29T00:56:40.005Z,63.98
2017-12-29T00:59:10.310Z,63.84
2017-12-29T01:01:44.472Z,65.00
2017-12-29T01:04:27.369Z,64.99
2017-12-29T01:07:00.522Z,65.00
2017-12-29T01:09:28.186Z,65.62
2017-12-29T01:11:56.743Z,65.60
2017-12-29T01:14:25.355Z,66.38
2017-12-29T01:16:53.218Z,66.21
2017-12-29T01:21:49.411Z,66.35
2017-12-29T01:24:17.642Z,66.72
2017-12-29T01:26:45.930Z,67.52
2017-12-29T01:29:13.714Z,65.88
2017-12-29T01:31:42.665Z,66.32
2017-12-29T01:34:31.829Z,66.99
2017-12-29T01:36:59.504Z,66.08
2017-12-29T01:39:27.280Z,65.87
2017-12-29T01:41:55.029Z,66.28
2017-12-29T01:44:22.805Z,66.27
2017-12-29T01:46:50.438Z,67.80
2017-12-29T01:49:19.099Z,67.21
2017-12-29T01:51:49.458Z,66.62
2017-12-29T01:54:17.161Z,66.49
2017-12-29T01:56:44.699Z,67.77
2017-12-29T01:59:12.843Z,68.42
2017-12-29T02:01:40.449Z,68.16
2017-12-29T02:04:08.064Z,67.41
2017-12-29T02:06:35.599Z,67.56
2017-12-29T02:09:03.201Z,67.62
2017-12-29T02:11:30.754Z,68.13
2017-12-29T02:13:58.616Z,67.35
2017-12-29T02:16:27.629Z,68.33
2017-12-29T02:18:55.352Z,67.90
2017-12-29T02:21:23.691Z,67.44
2017-12-29T02:23:51.293Z,68.32
2017-12-29T02:26:19.322Z,68.09
2017-12-29T02:28:48.588Z,69.20
2017-12-29T02:31:17.157Z,69.10
2017-12-29T02:33:44.878Z,68.35
2017-12-29T02:40:00.744Z,68.15
2017-12-29T02:42:28.392Z,68.15
2017-12-29T02:44:57.507Z,67.24
2017-12-29T02:47:25.884Z,67.42
2017-12-29T02:49:54.891Z,67.76
2017-12-29T02:52:22.509Z,67.81
2017-12-29T02:54:58.009Z,68.44
2017-12-29T02:57:26.583Z,67.43
2017-12-29T02:59:55.110Z,66.95
2017-12-29T03:02:49.502Z,67.31
2017-12-29T03:05:20.788Z,67.15
2017-12-29T03:07:50.944Z,66.45
2017-12-29T03:10:20.866Z,66.06
2017-12-29T03:12:48.915Z,66.87
2017-12-29T03:15:16.466Z,66.42
2017-12-29T03:17:46.124Z,66.89
2017-12-29T03:20:13.864Z,67.64
2017-12-29T03:29:25.993Z,67.48
2017-12-29T03:31:55.555Z,67.13
2017-12-29T03:34:28.801Z,67.54
2017-12-29T03:37:02.171Z,66.60
2017-12-29T03:40:23.536Z,66.68
2017-12-29T03:42:53.481Z,68.41
2017-12-29T03:45:25.007Z,67.64
2017-12-29T03:47:54.743Z,67.49
2017-12-29T03:50:24.852Z,68.05
2017-12-29T03:53:08.719Z,68.30
2017-12-29T03:55:47.287Z,66.82
2017-12-29T03:58:16.799Z,66.40
2017-12-29T04:01:28.387Z,66.56
2017-12-29T04:06:33.970Z,67.88
2017-12-29T04:09:04.399Z,67.46
2017-12-29T04:14:05.073Z,67.68
2017-12-29T04:33:27.118Z,69.77
2017-12-29T04:43:02.141Z,68.64
2017-12-29T04:45:31.442Z,69.38
2017-12-29T04:48:01.461Z,68.35
2017-12-29T04:53:05.336Z,69.54
2017-12-29T04:55:38.184Z,68.64
2017-12-29T05:01:43.229Z,68.24
2017-12-29T05:04:14.090Z,68.03
2017-12-29T05:13:01.340Z,68.50
2017-12-29T05:21:59.526Z,67.25
2017-12-29T05:24:32.198Z,67.26
2017-12-29T05:27:01.301Z,68.58
2017-12-29T05:29:34.783Z,67.14
2017-12-29T05:35:47.318Z,65.83
2017-12-29T05:38:18.372Z,66.86
2017-12-29T05:40:49.381Z,66.69
2017-12-29T05:43:35.358Z,67.25
2017-12-29T05:46:07.055Z,70.27
2017-12-29T05:48:38.852Z,69.11
2017-12-29T06:57:43.200Z,66.41
2017-12-29T07:00:10.868Z,64.21
2017-12-29T07:02:38.412Z,63.43
2017-12-29T07:05:06.445Z,61.97
2017-12-29T07:07:34.332Z,62.71
2017-12-29T07:10:01.901Z,62.95
2017-12-29T07:12:29.735Z,63.91
2017-12-29T07:14:58.188Z,64.29
2017-12-29T07:17:25.877Z,63.87
2017-12-29T07:19:53.786Z,64.14
2017-12-29T07:22:21.373Z,64.82
2017-12-29T07:24:49.084Z,63.48
2017-12-29T07:27:17.726Z,64.36
2017-12-29T07:29:46.173Z,64.44
2017-12-29T07:32:15.832Z,63.99
2017-12-29T07:34:43.435Z,63.64
2017-12-29T07:37:11.952Z,64.01
2017-12-29T07:39:39.652Z,64.17
2017-12-29T07:42:08.181Z,63.79
2017-12-29T07:44:37.672Z,63.50
2017-12-29T07:47:06.916Z,62.59
2017-12-29T07:49:57.700Z,63.56
2017-12-29T07:52:25.785Z,63.59
2017-12-29T07:54:53.878Z,63.32
2017-12-29T07:57:23.727Z,63.61
2017-12-29T07:59:58.942Z,62.80
2017-12-29T08:02:26.511Z,63.47
2017-12-29T08:04:54.219Z,63.27
2017-12-29T08:07:21.851Z,63.21
2017-12-29T08:09:49.773Z,62.03
2017-12-29T08:12:17.740Z,63.13
2017-12-29T08:14:46.330Z,63.26
2017-12-29T08:17:14.108Z,63.36
2017-12-29T08:19:41.850Z,62.79
2017-12-29T08:22:09.696Z,64.63
2017-12-29T08:24:42.024Z,62.11
2017-12-29T08:27:12.016Z,63.99
2017-12-29T08:29:39.857Z,63.12
2017-12-29T08:32:07.839Z,64.46
2017-12-29T08:34:36.667Z,62.04
2017-12-29T08:37:04.427Z,61.08
2017-12-29T08:39:33.096Z,61.45
2017-12-29T08:42:01.046Z,63.23
2017-12-29T08:44:29.403Z,61.74
2017-12-29T08:46:57.483Z,62.89
2017-12-29T08:49:25.356Z,62.02
2017-12-29T08:51:54.585Z,63.02
2017-12-29T08:54:22.359Z,61.57
2017-12-29T08:56:50.990Z,61.17
2017-12-29T08:59:20.033Z,60.79
2017-12-29T09:01:47.731Z,61.73
2017-12-29T09:04:15.286Z,62.82
2017-12-29T09:06:56.228Z,62.54
2017-12-29T09:09:28.550Z,63.13
2017-12-29T09:11:56.141Z,62.67
2017-12-29T09:14:23.796Z,61.88
2017-12-29T09:16:51.510Z,62.14
2017-12-29T09:19:19.135Z,62.36
2017-12-29T09:21:46.847Z,62.40
2017-12-29T09:24:15.024Z,62.37
2017-12-29T09:26:42.846Z,61.59
2017-12-29T09:29:10.457Z,61.41
2017-12-29T09:31:38.110Z,60.24
2017-12-29T09:34:05.715Z,59.72
2017-12-29T09:36:33.491Z,61.75
2017-12-29T09:39:02.127Z,62.58
2017-12-29T09:41:29.701Z,61.72
2017-12-29T09:43:57.350Z,62.05
2017-12-29T09:46:25.175Z,61.33
2017-12-29T09:48:52.883Z,61.02
2017-12-29T09:51:20.670Z,60.83
2017-12-29T09:53:50.503Z,59.76
2017-12-29T09:56:18.405Z,59.45
2017-12-29T10:02:21.465Z,60.68
2017-12-29T10:07:38.978Z,59.90
2017-12-29T10:13:55.670Z,59.75
2017-12-29T10:23:00.136Z,60.46
2017-12-29T10:25:54.607Z,60.60
2017-12-29T10:28:25.997Z,60.84
2017-12-29T10:30:53.656Z,62.63
2017-12-29T10:45:41.223Z,66.62
2017-12-29T10:51:55.220Z,66.07
2017-12-29T10:54:22.817Z,67.80
2017-12-29T10:56:50.418Z,67.21
2017-12-29T10:59:27.123Z,70.87
2017-12-29T11:01:56.291Z,71.25
2017-12-29T11:04:34.631Z,72.30
2017-12-29T11:07:03.365Z,73.48
2017-12-29T11:09:40.893Z,74.26
2017-12-29T11:12:12.471Z,73.36
2017-12-29T11:14:49.653Z,73.83
2017-12-29T11:17:18.271Z,72.68
2017-12-29T11:19:47.764Z,73.95
2017-12-29T11:22:16.347Z,75.80
2017-12-29T11:24:45.386Z,73.03
2017-12-29T11:27:14.968Z,73.28
2017-12-29T11:29:43.335Z,74.57
2017-12-29T11:32:15.438Z,73.90
2017-12-29T13:12:01.436Z,70.26
2017-12-29T13:14:28.986Z,68.89
2017-12-29T13:17:06.020Z,69.41
2017-12-29T13:19:33.554Z,68.80
2017-12-29T13:22:01.120Z,69.67
2017-12-29T13:24:35.446Z,68.38
2017-12-29T13:27:03.009Z,68.59
2017-12-29T13:29:32.764Z,68.51
2017-12-29T13:32:13.888Z,70.25
2017-12-29T13:34:55.302Z,71.24
2017-12-29T13:41:31.127Z,70.34
2017-12-29T13:43:58.766Z,71.29
2017-12-29T13:46:46.034Z,70.96
2017-12-29T13:49:21.240Z,70.47
2017-12-29T13:51:49.105Z,70.26
2017-12-29T13:54:17.924Z,70.15
2017-12-29T13:59:57.901Z,69.98
2017-12-29T14:05:24.625Z,67.66
2017-12-29T14:08:00.362Z,67.62
2017-12-29T14:10:32.943Z,65.84
2017-12-29T14:13:09.963Z,66.85
2017-12-29T14:15:44.480Z,66.23
2017-12-29T14:24:16.610Z,67.77
2017-12-29T14:37:17.667Z,67.18
2017-12-29T14:40:01.344Z,67.00
2017-12-29T14:42:35.029Z,67.33
2017-12-29T14:45:26.453Z,65.80
2017-12-29T14:54:56.523Z,69.89
2017-12-29T14:57:42.761Z,68.71
2017-12-29T15:03:04.813Z,70.08
2017-12-29T15:13:11.352Z,69.13
2017-12-29T15:33:34.111Z,70.39
2017-12-29T15:42:52.891Z,71.30
2017-12-29T15:48:41.340Z,71.91
2017-12-29T15:51:14.555Z,70.91
2017-12-29T15:57:48.525Z,70.68
2017-12-29T16:00:52.313Z,71.54
2017-12-29T16:06:55.010Z,71.69
2017-12-29T16:10:26.936Z,72.16
2017-12-29T16:13:01.863Z,72.19
2017-12-29T16:15:35.669Z,71.17
2017-12-29T16:20:54.357Z,70.90
2017-12-29T16:23:31.596Z,72.29
2017-12-29T16:26:05.284Z,71.95
2017-12-29T16:28:44.796Z,71.43
2017-12-29T16:31:25.985Z,71.69
2017-12-29T16:37:06.383Z,71.71
2017-12-29T16:39:51.722Z,72.39
2017-12-29T16:42:25.446Z,71.06
2017-12-29T16:45:10.195Z,71.56
2017-12-29T16:47:45.287Z,71.20
2017-12-29T16:50:15.225Z,70.99
2017-12-29T16:52:46.625Z,71.66
2017-12-29T16:57:49.699Z,72.12
2017-12-29T17:00:19.141Z,72.04
2017-12-29T17:09:37.355Z,71.13
2017-12-29T17:18:53.801Z,71.78
2017-12-29T17:21:36.611Z,71.71
2017-12-29T17:24:48.506Z,71.57
2017-12-29T17:30:23.967Z,73.08
2017-12-29T17:39:56.193Z,73.78
2017-12-29T17:42:27.495Z,73.97
2017-12-29T17:52:13.526Z,74.38
2017-12-29T20:00:54.753Z,71.89
2017-12-29T20:03:22.366Z,71.81
2017-12-29T20:05:50.247Z,71.43
2017-12-29T20:08:19.274Z,71.25
2017-12-29T20:10:46.944Z,71.20
2017-12-29T20:13:14.549Z,71.48
2017-12-29T20:15:42.143Z,71.57
2017-12-29T20:18:10.017Z,71.38
2017-12-29T20:20:38.375Z,71.42
2017-12-29T20:23:09.789Z,71.44
2017-12-29T20:25:39.945Z,71.02
2017-12-29T20:28:07.773Z,71.06
2017-12-29T20:33:08.091Z,71.28
2017-12-29T20:35:39.938Z,71.52
2017-12-29T20:38:08.556Z,71.64
2017-12-29T20:40:38.541Z,71.58
2017-12-29T20:43:06.897Z,71.21
2017-12-29T20:45:36.195Z,71.53
2017-12-29T20:48:09.957Z,71.29
2017-12-29T20:50:41.127Z,71.57
2017-12-29T20:53:09.300Z,71.19
2017-12-29T20:55:45.976Z,71.39
2017-12-29T20:58:15.141Z,71.20
2017-12-29T21:00:42.704Z,71.03
2017-12-29T21:03:10.317Z,70.87
2017-12-29T21:05:37.970Z,70.31
2017-12-29T21:08:06.303Z,70.89
2017-12-29T21:10:34.893Z,70.53
2017-12-29T21:13:03.332Z,70.10
2017-12-29T21:15:30.945Z,70.08
2017-12-29T21:17:58.609Z,69.95
2017-12-29T21:20:34.084Z,69.50
2017-12-29T21:23:02.685Z,69.71
2017-12-29T21:26:12.483Z,69.61
2017-12-29T21:28:48.681Z,69.73
2017-12-29T21:31:31.401Z,69.40
2017-12-29T21:39:07.671Z,69.19
2017-12-29T21:41:35.452Z,70.08
2017-12-29T21:44:03.346Z,69.61
2017-12-29T21:46:38.431Z,69.22
2017-12-29T21:49:06.114Z,69.18
2017-12-29T21:51:33.762Z,69.31
2017-12-29T21:54:01.424Z,69.50
2017-12-29T21:56:32.166Z,69.11
2017-12-29T21:58:59.869Z,69.47
2017-12-29T22:01:36.710Z,68.95
2017-12-29T22:04:18.072Z,69.01
2017-12-29T22:06:47.130Z,69.11
2017-12-29T22:14:45.795Z,69.40
2017-12-29T22:20:17.720Z,69.62
2017-12-29T22:22:46.397Z,69.45
2017-12-29T22:25:20.569Z,69.15
2017-12-29T22:27:49.037Z,69.79
2017-12-29T22:30:20.429Z,69.25
2017-12-29T22:53:08.595Z,69.27
2017-12-29T23:05:20.001Z,69.12
2017-12-29T23:07:55.428Z,69.08
2017-12-29T23:13:07.340Z,68.91
2017-12-29T23:15:50.734Z,69.00
2017-12-29T23:18:21.152Z,69.30
2017-12-29T23:20:48.737Z,68.71
2017-12-29T23:23:20.128Z,68.54
2017-12-29T23:26:05.582Z,68.70
2017-12-29T23:35:32.600Z,68.87
2017-12-29T23:38:02.480Z,69.01
2017-12-29T23:43:24.205Z,68.52
2017-12-29T23:46:06.050Z,68.12
2017-12-29T23:48:42.932Z,68.63
2017-12-29T23:51:16.448Z,68.01
